sensor_id;sensor_type;location;lat;lon;timestamp;P1;durP1;ratioP1;P2;durP2;ratioP2
53644;SDS011;39547;45.554;12.068;2023-01-30T00:02:30;103.05;;;47.38;;
53644;SDS011;39547;45.554;12.068;2023-01-30T00:08:31;108.72;;;50.78;;
53644;SDS011;39547;45.554;12.068;2023-01-30T00:14:33;116.65;;;54.75;;
53644;SDS011;39547;45.554;12.068;2023-01-30T00:20:34;94.45;;;45.50;;
53644;SDS011;39547;45.554;12.068;2023-01-30T00:26:36;98.10;;;46.55;;
53644;SDS011;39547;45.554;12.068;2023-01-30T00:32:37;90.45;;;44.92;;
53644;SDS011;39547;45.554;12.068;2023-01-30T00:38:39;96.53;;;45.72;;
53644;SDS011;39547;45.554;12.068;2023-01-30T00:44:41;103.50;;;46.25;;
53644;SDS011;39547;45.554;12.068;2023-01-30T00:51:01;102.70;;;48.78;;
53644;SDS011;39547;45.554;12.068;2023-01-30T00:57:03;92.18;;;43.80;;
53644;SDS011;39547;45.554;12.068;2023-01-30T01:03:05;86.32;;;42.42;;
53644;SDS011;39547;45.554;12.068;2023-01-30T01:09:07;90.68;;;44.38;;
53644;SDS011;39547;45.554;12.068;2023-01-30T01:15:12;90.07;;;42.78;;
53644;SDS011;39547;45.554;12.068;2023-01-30T01:21:14;88.00;;;42.95;;
53644;SDS011;39547;45.554;12.068;2023-01-30T01:27:16;101.97;;;47.95;;
53644;SDS011;39547;45.554;12.068;2023-01-30T01:33:19;101.05;;;47.75;;
53644;SDS011;39547;45.554;12.068;2023-01-30T01:39:20;94.00;;;46.03;;
53644;SDS011;39547;45.554;12.068;2023-01-30T01:45:24;108.47;;;51.20;;
53644;SDS011;39547;45.554;12.068;2023-01-30T01:51:30;91.00;;;43.67;;
53644;SDS011;39547;45.554;12.068;2023-01-30T01:57:41;84.85;;;40.80;;
53644;SDS011;39547;45.554;12.068;2023-01-30T02:03:51;89.45;;;42.72;;
53644;SDS011;39547;45.554;12.068;2023-01-30T02:09:57;83.25;;;41.50;;
53644;SDS011;39547;45.554;12.068;2023-01-30T02:15:59;87.82;;;41.58;;
53644;SDS011;39547;45.554;12.068;2023-01-30T02:54:04;61.67;;;31.13;;
53644;SDS011;39547;45.554;12.068;2023-01-30T03:00:07;70.35;;;33.15;;
53644;SDS011;39547;45.554;12.068;2023-01-30T03:12:39;61.67;;;30.65;;
53644;SDS011;39547;45.554;12.068;2023-01-30T03:18:46;66.07;;;31.90;;
53644;SDS011;39547;45.554;12.068;2023-01-30T03:24:50;63.85;;;31.30;;
53644;SDS011;39547;45.554;12.068;2023-01-30T03:30:54;53.00;;;27.30;;
53644;SDS011;39547;45.554;12.068;2023-01-30T03:36:55;59.47;;;28.48;;
53644;SDS011;39547;45.554;12.068;2023-01-30T03:42:57;55.35;;;27.30;;
53644;SDS011;39547;45.554;12.068;2023-01-30T03:48:59;60.47;;;29.63;;
53644;SDS011;39547;45.554;12.068;2023-01-30T03:55:01;52.08;;;26.20;;
53644;SDS011;39547;45.554;12.068;2023-01-30T04:01:03;61.45;;;29.90;;
53644;SDS011;39547;45.554;12.068;2023-01-30T04:07:04;57.75;;;28.65;;
53644;SDS011;39547;45.554;12.068;2023-01-30T04:13:07;62.00;;;31.38;;
53644;SDS011;39547;45.554;12.068;2023-01-30T04:19:09;63.45;;;32.47;;
53644;SDS011;39547;45.554;12.068;2023-01-30T04:25:11;61.28;;;31.63;;
53644;SDS011;39547;45.554;12.068;2023-01-30T04:31:12;60.63;;;30.38;;
53644;SDS011;39547;45.554;12.068;2023-01-30T04:37:17;62.83;;;32.88;;
53644;SDS011;39547;45.554;12.068;2023-01-30T04:43:20;75.05;;;36.22;;
53644;SDS011;39547;45.554;12.068;2023-01-30T04:49:44;68.93;;;33.40;;
53644;SDS011;39547;45.554;12.068;2023-01-30T04:55:47;60.37;;;30.40;;
53644;SDS011;39547;45.554;12.068;2023-01-30T05:01:49;61.55;;;30.60;;
53644;SDS011;39547;45.554;12.068;2023-01-30T05:07:51;68.35;;;31.38;;
53644;SDS011;39547;45.554;12.068;2023-01-30T05:13:53;61.17;;;30.27;;
53644;SDS011;39547;45.554;12.068;2023-01-30T05:19:54;67.50;;;32.88;;
53644;SDS011;39547;45.554;12.068;2023-01-30T05:25:56;56.78;;;28.48;;
53644;SDS011;39547;45.554;12.068;2023-01-30T05:31:57;70.85;;;32.67;;
53644;SDS011;39547;45.554;12.068;2023-01-30T05:37:58;64.47;;;32.22;;
53644;SDS011;39547;45.554;12.068;2023-01-30T05:44:01;57.60;;;28.83;;
53644;SDS011;39547;45.554;12.068;2023-01-30T05:50:03;61.90;;;30.75;;
53644;SDS011;39547;45.554;12.068;2023-01-30T05:56:05;61.58;;;30.08;;
53644;SDS011;39547;45.554;12.068;2023-01-30T06:02:07;72.28;;;36.72;;
53644;SDS011;39547;45.554;12.068;2023-01-30T06:08:08;61.40;;;30.15;;
53644;SDS011;39547;45.554;12.068;2023-01-30T06:14:10;67.10;;;33.17;;
53644;SDS011;39547;45.554;12.068;2023-01-30T06:20:11;65.00;;;32.58;;
53644;SDS011;39547;45.554;12.068;2023-01-30T06:26:13;64.72;;;33.20;;
53644;SDS011;39547;45.554;12.068;2023-01-30T06:32:14;59.95;;;30.48;;
53644;SDS011;39547;45.554;12.068;2023-01-30T06:38:16;69.47;;;33.97;;
53644;SDS011;39547;45.554;12.068;2023-01-30T06:44:17;64.78;;;32.80;;
53644;SDS011;39547;45.554;12.068;2023-01-30T06:50:20;65.07;;;31.77;;
53644;SDS011;39547;45.554;12.068;2023-01-30T06:56:23;66.90;;;34.30;;
53644;SDS011;39547;45.554;12.068;2023-01-30T07:02:25;76.57;;;36.05;;
53644;SDS011;39547;45.554;12.068;2023-01-30T07:08:30;76.57;;;37.42;;
53644;SDS011;39547;45.554;12.068;2023-01-30T07:14:31;71.68;;;36.60;;
53644;SDS011;39547;45.554;12.068;2023-01-30T07:20:33;75.28;;;36.58;;
53644;SDS011;39547;45.554;12.068;2023-01-30T07:26:34;67.07;;;33.45;;
53644;SDS011;39547;45.554;12.068;2023-01-30T07:32:36;65.75;;;33.30;;
53644;SDS011;39547;45.554;12.068;2023-01-30T07:38:37;61.22;;;31.35;;
53644;SDS011;39547;45.554;12.068;2023-01-30T07:44:39;65.28;;;31.63;;
53644;SDS011;39547;45.554;12.068;2023-01-30T07:50:40;69.53;;;34.45;;
53644;SDS011;39547;45.554;12.068;2023-01-30T07:56:43;54.92;;;29.80;;
53644;SDS011;39547;45.554;12.068;2023-01-30T08:02:44;73.45;;;34.95;;
53644;SDS011;39547;45.554;12.068;2023-01-30T08:08:45;70.63;;;34.65;;
53644;SDS011;39547;45.554;12.068;2023-01-30T08:14:47;69.18;;;34.67;;
53644;SDS011;39547;45.554;12.068;2023-01-30T08:20:48;65.60;;;32.63;;
53644;SDS011;39547;45.554;12.068;2023-01-30T08:26:50;69.40;;;34.80;;
53644;SDS011;39547;45.554;12.068;2023-01-30T08:32:51;63.03;;;31.77;;
53644;SDS011;39547;45.554;12.068;2023-01-30T08:38:53;68.00;;;34.25;;
53644;SDS011;39547;45.554;12.068;2023-01-30T08:44:54;68.70;;;34.38;;
53644;SDS011;39547;45.554;12.068;2023-01-30T08:50:56;57.38;;;30.27;;
53644;SDS011;39547;45.554;12.068;2023-01-30T08:56:57;55.20;;;28.33;;
53644;SDS011;39547;45.554;12.068;2023-01-30T09:02:59;56.50;;;28.58;;
53644;SDS011;39547;45.554;12.068;2023-01-30T09:09:01;55.85;;;27.17;;
53644;SDS011;39547;45.554;12.068;2023-01-30T09:15:03;59.85;;;29.65;;
53644;SDS011;39547;45.554;12.068;2023-01-30T09:21:05;52.58;;;28.17;;
53644;SDS011;39547;45.554;12.068;2023-01-30T09:27:07;53.00;;;27.08;;
53644;SDS011;39547;45.554;12.068;2023-01-30T09:33:09;53.13;;;25.95;;
53644;SDS011;39547;45.554;12.068;2023-01-30T09:39:10;61.67;;;30.55;;
53644;SDS011;39547;45.554;12.068;2023-01-30T09:58:26;53.55;;;26.60;;
53644;SDS011;39547;45.554;12.068;2023-01-30T10:04:43;49.15;;;24.85;;
53644;SDS011;39547;45.554;12.068;2023-01-30T10:29:23;43.50;;;22.40;;
53644;SDS011;39547;45.554;12.068;2023-01-30T10:35:36;39.85;;;19.15;;
53644;SDS011;39547;45.554;12.068;2023-01-30T10:41:44;40.00;;;20.17;;
53644;SDS011;39547;45.554;12.068;2023-01-30T10:48:11;45.47;;;21.50;;
53644;SDS011;39547;45.554;12.068;2023-01-30T10:54:34;38.90;;;19.20;;
53644;SDS011;39547;45.554;12.068;2023-01-30T11:00:46;42.95;;;21.00;;
53644;SDS011;39547;45.554;12.068;2023-01-30T11:07:00;42.38;;;22.08;;
53644;SDS011;39547;45.554;12.068;2023-01-30T11:13:13;45.33;;;21.80;;
53644;SDS011;39547;45.554;12.068;2023-01-30T11:19:18;41.58;;;20.80;;
53644;SDS011;39547;45.554;12.068;2023-01-30T11:25:25;47.30;;;24.42;;
53644;SDS011;39547;45.554;12.068;2023-01-30T11:31:28;50.05;;;25.63;;
53644;SDS011;39547;45.554;12.068;2023-01-30T11:37:31;44.55;;;23.00;;
53644;SDS011;39547;45.554;12.068;2023-01-30T11:43:37;45.03;;;23.52;;
53644;SDS011;39547;45.554;12.068;2023-01-30T11:49:43;44.03;;;22.20;;
53644;SDS011;39547;45.554;12.068;2023-01-30T11:55:48;41.40;;;21.17;;
53644;SDS011;39547;45.554;12.068;2023-01-30T12:01:50;45.17;;;22.40;;
53644;SDS011;39547;45.554;12.068;2023-01-30T12:14:38;40.20;;;21.48;;
53644;SDS011;39547;45.554;12.068;2023-01-30T12:27:08;40.15;;;20.55;;
53644;SDS011;39547;45.554;12.068;2023-01-30T12:33:31;45.90;;;24.20;;
53644;SDS011;39547;45.554;12.068;2023-01-30T12:45:42;48.00;;;23.92;;
53644;SDS011;39547;45.554;12.068;2023-01-30T13:04:38;44.00;;;23.85;;
53644;SDS011;39547;45.554;12.068;2023-01-30T13:29:34;36.97;;;19.38;;
53644;SDS011;39547;45.554;12.068;2023-01-30T13:41:52;38.40;;;19.35;;
53644;SDS011;39547;45.554;12.068;2023-01-30T13:54:38;40.90;;;20.50;;
53644;SDS011;39547;45.554;12.068;2023-01-30T14:00:52;36.95;;;19.55;;
53644;SDS011;39547;45.554;12.068;2023-01-30T14:07:06;37.00;;;18.42;;
53644;SDS011;39547;45.554;12.068;2023-01-30T14:13:15;36.65;;;18.98;;
53644;SDS011;39547;45.554;12.068;2023-01-30T14:19:21;35.67;;;18.02;;
53644;SDS011;39547;45.554;12.068;2023-01-30T14:25:48;36.00;;;18.40;;
53644;SDS011;39547;45.554;12.068;2023-01-30T14:31:51;36.63;;;18.55;;
53644;SDS011;39547;45.554;12.068;2023-01-30T14:44:11;36.03;;;18.65;;
53644;SDS011;39547;45.554;12.068;2023-01-30T14:57:32;36.88;;;19.27;;
53644;SDS011;39547;45.554;12.068;2023-01-30T15:03:34;36.33;;;18.23;;
53644;SDS011;39547;45.554;12.068;2023-01-30T15:09:41;38.42;;;19.48;;
53644;SDS011;39547;45.554;12.068;2023-01-30T15:16:06;37.10;;;19.40;;
53644;SDS011;39547;45.554;12.068;2023-01-30T15:22:18;39.30;;;19.08;;
53644;SDS011;39547;45.554;12.068;2023-01-30T15:28:32;38.08;;;18.92;;
53644;SDS011;39547;45.554;12.068;2023-01-30T15:34:49;34.85;;;17.88;;
53644;SDS011;39547;45.554;12.068;2023-01-30T15:41:03;34.38;;;17.85;;
53644;SDS011;39547;45.554;12.068;2023-01-30T15:53:38;38.75;;;19.20;;
53644;SDS011;39547;45.554;12.068;2023-01-30T15:59:41;39.10;;;19.33;;
53644;SDS011;39547;45.554;12.068;2023-01-30T16:05:47;39.95;;;19.88;;
53644;SDS011;39547;45.554;12.068;2023-01-30T16:11:49;40.33;;;20.48;;
53644;SDS011;39547;45.554;12.068;2023-01-30T16:18:01;45.20;;;21.55;;
53644;SDS011;39547;45.554;12.068;2023-01-30T16:24:36;43.72;;;21.15;;
53644;SDS011;39547;45.554;12.068;2023-01-30T16:30:37;42.05;;;21.05;;
53644;SDS011;39547;45.554;12.068;2023-01-30T16:36:42;42.53;;;21.65;;
53644;SDS011;39547;45.554;12.068;2023-01-30T16:49:02;41.95;;;21.50;;
53644;SDS011;39547;45.554;12.068;2023-01-30T16:55:05;43.45;;;22.55;;
53644;SDS011;39547;45.554;12.068;2023-01-30T17:01:08;43.75;;;22.00;;
53644;SDS011;39547;45.554;12.068;2023-01-30T17:07:18;45.58;;;22.98;;
53644;SDS011;39547;45.554;12.068;2023-01-30T17:13:34;48.45;;;23.85;;
53644;SDS011;39547;45.554;12.068;2023-01-30T17:19:37;49.15;;;24.70;;
53644;SDS011;39547;45.554;12.068;2023-01-30T17:25:39;47.22;;;25.30;;
53644;SDS011;39547;45.554;12.068;2023-01-30T17:31:44;47.33;;;24.85;;
53644;SDS011;39547;45.554;12.068;2023-01-30T17:37:48;53.28;;;26.38;;
53644;SDS011;39547;45.554;12.068;2023-01-30T17:43:51;57.55;;;28.30;;
53644;SDS011;39547;45.554;12.068;2023-01-30T17:49:52;55.78;;;26.70;;
53644;SDS011;39547;45.554;12.068;2023-01-30T17:55:55;63.78;;;31.00;;
53644;SDS011;39547;45.554;12.068;2023-01-30T18:01:57;57.90;;;28.98;;
53644;SDS011;39547;45.554;12.068;2023-01-30T18:07:59;59.90;;;30.48;;
53644;SDS011;39547;45.554;12.068;2023-01-30T18:14:01;74.22;;;36.33;;
53644;SDS011;39547;45.554;12.068;2023-01-30T18:20:02;65.32;;;33.25;;
53644;SDS011;39547;45.554;12.068;2023-01-30T18:26:04;88.55;;;41.55;;
53644;SDS011;39547;45.554;12.068;2023-01-30T18:32:05;82.47;;;39.58;;
53644;SDS011;39547;45.554;12.068;2023-01-30T18:38:07;78.20;;;39.28;;
53644;SDS011;39547;45.554;12.068;2023-01-30T18:44:08;90.55;;;42.35;;
53644;SDS011;39547;45.554;12.068;2023-01-30T18:50:10;87.28;;;41.53;;
53644;SDS011;39547;45.554;12.068;2023-01-30T18:56:14;108.18;;;47.85;;
53644;SDS011;39547;45.554;12.068;2023-01-30T19:02:20;109.88;;;49.55;;
53644;SDS011;39547;45.554;12.068;2023-01-30T19:08:21;115.53;;;51.92;;
53644;SDS011;39547;45.554;12.068;2023-01-30T19:14:25;118.18;;;52.40;;
53644;SDS011;39547;45.554;12.068;2023-01-30T19:20:27;104.68;;;46.83;;
53644;SDS011;39547;45.554;12.068;2023-01-30T19:26:28;107.38;;;48.10;;
53644;SDS011;39547;45.554;12.068;2023-01-30T19:32:30;87.25;;;43.20;;
53644;SDS011;39547;45.554;12.068;2023-01-30T19:38:32;89.95;;;43.08;;
53644;SDS011;39547;45.554;12.068;2023-01-30T19:44:33;99.25;;;47.08;;
53644;SDS011;39547;45.554;12.068;2023-01-30T19:50:35;127.68;;;59.55;;
53644;SDS011;39547;45.554;12.068;2023-01-30T19:56:37;122.20;;;56.33;;
53644;SDS011;39547;45.554;12.068;2023-01-30T20:02:41;116.40;;;52.47;;
53644;SDS011;39547;45.554;12.068;2023-01-30T20:08:43;124.60;;;55.63;;
53644;SDS011;39547;45.554;12.068;2023-01-30T20:14:46;99.35;;;47.88;;
53644;SDS011;39547;45.554;12.068;2023-01-30T20:20:47;103.10;;;47.08;;
53644;SDS011;39547;45.554;12.068;2023-01-30T20:26:49;102.85;;;47.92;;
53644;SDS011;39547;45.554;12.068;2023-01-30T20:32:52;104.30;;;47.75;;
53644;SDS011;39547;45.554;12.068;2023-01-30T20:38:54;97.20;;;44.90;;
53644;SDS011;39547;45.554;12.068;2023-01-30T20:44:56;101.10;;;46.72;;
53644;SDS011;39547;45.554;12.068;2023-01-30T20:51:17;92.53;;;43.97;;
53644;SDS011;39547;45.554;12.068;2023-01-30T20:57:19;108.35;;;48.00;;
53644;SDS011;39547;45.554;12.068;2023-01-30T21:03:24;97.93;;;45.03;;
53644;SDS011;39547;45.554;12.068;2023-01-30T21:09:25;100.10;;;45.25;;
53644;SDS011;39547;45.554;12.068;2023-01-30T21:15:27;111.50;;;50.85;;
53644;SDS011;39547;45.554;12.068;2023-01-30T21:21:30;102.95;;;47.13;;
53644;SDS011;39547;45.554;12.068;2023-01-30T21:27:33;97.95;;;46.63;;
53644;SDS011;39547;45.554;12.068;2023-01-30T21:33:34;103.53;;;47.28;;
53644;SDS011;39547;45.554;12.068;2023-01-30T21:39:36;100.65;;;47.38;;
53644;SDS011;39547;45.554;12.068;2023-01-30T21:45:56;99.85;;;46.38;;
53644;SDS011;39547;45.554;12.068;2023-01-30T21:51:58;93.65;;;42.97;;
53644;SDS011;39547;45.554;12.068;2023-01-30T21:57:59;88.95;;;43.70;;
53644;SDS011;39547;45.554;12.068;2023-01-30T22:04:01;102.47;;;45.67;;
53644;SDS011;39547;45.554;12.068;2023-01-30T22:10:04;108.90;;;47.40;;
53644;SDS011;39547;45.554;12.068;2023-01-30T22:16:06;101.90;;;45.63;;
53644;SDS011;39547;45.554;12.068;2023-01-30T22:22:12;106.10;;;47.75;;
53644;SDS011;39547;45.554;12.068;2023-01-30T22:28:14;110.63;;;50.58;;
53644;SDS011;39547;45.554;12.068;2023-01-30T22:34:15;102.32;;;46.53;;
53644;SDS011;39547;45.554;12.068;2023-01-30T22:40:17;112.55;;;49.92;;
53644;SDS011;39547;45.554;12.068;2023-01-30T22:46:18;94.50;;;44.67;;
53644;SDS011;39547;45.554;12.068;2023-01-30T22:52:20;92.93;;;43.80;;
53644;SDS011;39547;45.554;12.068;2023-01-30T22:58:21;97.20;;;45.47;;
53644;SDS011;39547;45.554;12.068;2023-01-30T23:04:23;96.40;;;43.90;;
53644;SDS011;39547;45.554;12.068;2023-01-30T23:10:24;87.47;;;41.45;;
53644;SDS011;39547;45.554;12.068;2023-01-30T23:16:26;111.03;;;48.55;;
53644;SDS011;39547;45.554;12.068;2023-01-30T23:22:28;101.40;;;43.97;;
53644;SDS011;39547;45.554;12.068;2023-01-30T23:28:29;109.25;;;49.30;;
53644;SDS011;39547;45.554;12.068;2023-01-30T23:34:31;109.03;;;50.42;;
53644;SDS011;39547;45.554;12.068;2023-01-30T23:47:11;96.53;;;41.58;;
53644;SDS011;39547;45.554;12.068;2023-01-30T23:53:13;88.40;;;39.85;;
53644;SDS011;39547;45.554;12.068;2023-01-30T23:59:14;81.90;;;39.30;;
